Time;durP1;ratioP1;P1;durP2;ratioP2;P2;SDS_P1;SDS_P2;PMS_P1;PMS_P2;Temp;Humidity;BMP_temperature;BMP_pressure;BME280_temperature;BME280_humidity;BME280_pressure;Samples;Min_cycle;Max_cycle;Signal;HPM_P1;HPM_P2
2021/04/22 00:00:17;;;;;;;12.55;9.05;;;;;;;;;;3585581;40;20049;-54
2021/04/22 00:02:43;;;;;;;13.98;8.27;;;;;;;;;;3585903;40;20032;-52
2021/04/22 00:05:20;;;;;;;10.63;7.32;;;;;;;;;;3586508;40;20039;-54
2021/04/22 00:07:46;;;;;;;16.40;7.95;;;;;;;;;;3585912;40;20532;-53
2021/04/22 00:10:14;;;;;;;15.43;8.40;;;;;;;;;;3584750;40;20039;-53
2021/04/22 00:12:40;;;;;;;12.70;7.97;;;;;;;;;;3586671;40;20041;-54
2021/04/22 00:15:13;;;;;;;17.08;8.98;;;;;;;;;;3585986;40;20044;-53
2021/04/22 00:17:39;;;;;;;14.80;7.82;;;;;;;;;;3585830;40;20044;-52
2021/04/22 00:20:05;;;;;;;14.60;7.05;;;;;;;;;;3586467;40;20066;-52
2021/04/22 00:22:31;;;;;;;16.65;8.45;;;;;;;;;;3584416;40;20045;-53
2021/04/22 00:24:56;;;;;;;13.07;7.65;;;;;;;;;;3585600;40;20040;-53
2021/04/22 00:27:22;;;;;;;14.38;7.00;;;;;;;;;;3586324;39;20153;-55
2021/04/22 00:29:47;;;;;;;14.18;7.82;;;;;;;;;;3585877;40;20041;-50
2021/04/22 00:32:15;;;;;;;12.07;7.43;;;;;;;;;;3585270;40;20060;-54
2021/04/22 00:34:40;;;;;;;13.85;7.97;;;;;;;;;;3585456;40;20363;-52
2021/04/22 00:37:05;;;;;;;17.13;6.60;;;;;;;;;;3586873;40;20040;-54
2021/04/22 00:39:31;;;;;;;18.40;7.28;;;;;;;;;;3585899;40;20044;-53
2021/04/22 00:41:56;;;;;;;14.13;7.55;;;;;;;;;;3586105;40;20465;-54
2021/04/22 00:44:21;;;;;;;18.27;8.15;;;;;;;;;;3585275;40;20036;-54
2021/04/22 00:46:48;;;;;;;9.82;6.72;;;;;;;;;;3586926;40;20047;-54
2021/04/22 00:49:13;;;;;;;13.25;6.82;;;;;;;;;;3585206;40;20246;-52
2021/04/22 00:51:38;;;;;;;13.45;6.63;;;;;;;;;;3591811;39;20095;-54
2021/04/22 00:54:04;;;;;;;16.30;7.13;;;;;;;;;;3587821;39;20037;-54
2021/04/22 00:56:30;;;;;;;12.55;6.40;;;;;;;;;;3585771;40;20407;-54
2021/04/22 00:58:55;;;;;;;12.80;6.32;;;;;;;;;;3585739;40;20048;-53
2021/04/22 01:01:21;;;;;;;12.05;6.07;;;;;;;;;;3585038;40;20063;-55
2021/04/22 01:03:46;;;;;;;15.32;7.22;;;;;;;;;;3585634;39;20333;-51
2021/04/22 01:06:12;;;;;;;12.57;6.60;;;;;;;;;;3585918;40;20040;-53
2021/04/22 01:08:37;;;;;;;12.85;6.50;;;;;;;;;;3586274;40;20403;-51
2021/04/22 01:11:05;;;;;;;20.73;7.32;;;;;;;;;;3586889;40;20033;-54
2021/04/22 01:13:31;;;;;;;11.35;6.40;;;;;;;;;;3587266;40;20040;-53
2021/04/22 01:15:56;;;;;;;13.82;6.85;;;;;;;;;;3585459;39;20130;-52
2021/04/22 01:18:21;;;;;;;16.40;7.50;;;;;;;;;;3584997;40;20064;-54
2021/04/22 01:20:52;;;;;;;15.70;7.00;;;;;;;;;;3587004;40;20024;-53
2021/04/22 01:23:18;;;;;;;16.48;7.07;;;;;;;;;;3585374;39;20052;-53
2021/04/22 01:25:47;;;;;;;13.25;6.90;;;;;;;;;;3585375;40;20052;-54
2021/04/22 01:28:15;;;;;;;22.88;6.88;;;;;;;;;;3583953;40;20086;-53
2021/04/22 01:30:49;;;;;;;14.80;7.97;;;;;;;;;;3585373;40;20042;-51
2021/04/22 01:33:18;;;;;;;19.05;6.95;;;;;;;;;;3585115;40;20037;-50
2021/04/22 01:35:47;;;;;;;16.77;6.47;;;;;;;;;;3586297;40;20051;-54
2021/04/22 01:38:13;;;;;;;16.85;6.68;;;;;;;;;;3585124;40;20368;-50
2021/04/22 01:40:39;;;;;;;12.57;6.28;;;;;;;;;;3589537;39;20043;-54
2021/04/22 01:43:05;;;;;;;14.30;6.65;;;;;;;;;;3584882;40;20325;-53
2021/04/22 01:45:32;;;;;;;15.82;6.03;;;;;;;;;;3586388;40;20032;-51
2021/04/22 01:47:57;;;;;;;18.33;7.13;;;;;;;;;;3585391;40;20048;-53
2021/04/22 01:50:26;;;;;;;13.40;6.43;;;;;;;;;;3584747;40;20040;-53
2021/04/22 01:52:53;;;;;;;16.80;6.32;;;;;;;;;;3585051;40;20036;-51
2021/04/22 01:55:28;;;;;;;10.27;6.20;;;;;;;;;;3585049;40;20526;-54
2021/04/22 01:57:54;;;;;;;13.90;6.40;;;;;;;;;;3585175;40;20060;-53
2021/04/22 02:00:27;;;;;;;19.33;6.57;;;;;;;;;;3584846;40;20055;-53
2021/04/22 02:02:52;;;;;;;12.90;6.75;;;;;;;;;;3586550;39;20061;-53
2021/04/22 02:05:20;;;;;;;11.43;5.72;;;;;;;;;;3586066;40;20040;-51
2021/04/22 02:07:45;;;;;;;10.07;5.50;;;;;;;;;;3585556;40;20044;-54
2021/04/22 02:10:11;;;;;;;16.63;6.43;;;;;;;;;;3586967;40;20036;-51
2021/04/22 02:12:37;;;;;;;15.00;5.70;;;;;;;;;;3589317;40;20354;-54
2021/04/22 02:15:06;;;;;;;18.23;6.65;;;;;;;;;;3588426;40;20370;-55
2021/04/22 02:17:31;;;;;;;15.55;5.63;;;;;;;;;;3589573;39;20049;-54
2021/04/22 02:19:57;;;;;;;14.77;5.20;;;;;;;;;;3588776;40;20052;-50
2021/04/22 02:22:22;;;;;;;13.70;5.03;;;;;;;;;;3587509;39;20774;-51
2021/04/22 02:24:48;;;;;;;16.15;6.38;;;;;;;;;;3588923;39;20062;-52
2021/04/22 02:27:13;;;;;;;10.30;4.68;;;;;;;;;;3589381;40;20039;-55
2021/04/22 02:29:39;;;;;;;17.52;5.28;;;;;;;;;;3587268;40;20036;-50
2021/04/22 02:32:04;;;;;;;15.32;5.55;;;;;;;;;;3589302;39;20032;-52
2021/04/22 02:34:30;;;;;;;11.20;4.45;;;;;;;;;;3588245;40;20056;-52
2021/04/22 02:36:55;;;;;;;14.98;4.47;;;;;;;;;;3590571;39;20056;-55
2021/04/22 02:39:21;;;;;;;16.15;5.72;;;;;;;;;;3589630;39;20269;-53
2021/04/22 02:41:46;;;;;;;11.32;5.47;;;;;;;;;;3588051;40;20256;-53
2021/04/22 02:44:12;;;;;;;14.30;4.85;;;;;;;;;;3594091;39;20032;-52
2021/04/22 02:46:37;;;;;;;12.07;5.07;;;;;;;;;;3587751;39;20060;-54
2021/04/22 02:49:03;;;;;;;8.73;5.00;;;;;;;;;;3590024;39;20036;-54
2021/04/22 02:51:28;;;;;;;11.60;4.75;;;;;;;;;;3589538;39;20029;-52
2021/04/22 02:53:54;;;;;;;18.55;5.60;;;;;;;;;;3588385;40;20044;-50
2021/04/22 02:56:19;;;;;;;22.35;5.07;;;;;;;;;;3589891;39;20049;-54
2021/04/22 02:58:44;;;;;;;9.85;4.30;;;;;;;;;;3593361;39;20032;-51
2021/04/22 03:01:10;;;;;;;9.10;4.32;;;;;;;;;;3590420;40;20265;-53
2021/04/22 03:03:35;;;;;;;8.20;4.10;;;;;;;;;;3588097;40;20044;-55
2021/04/22 03:06:00;;;;;;;12.98;4.57;;;;;;;;;;3588150;40;20032;-54
2021/04/22 03:08:26;;;;;;;10.45;3.97;;;;;;;;;;3588204;40;20040;-53
2021/04/22 03:10:52;;;;;;;15.85;4.40;;;;;;;;;;3591339;39;20375;-52
2021/04/22 03:13:17;;;;;;;12.13;4.43;;;;;;;;;;3589543;40;20050;-53
2021/04/22 03:15:44;;;;;;;12.82;3.97;;;;;;;;;;3588638;40;20913;-50
2021/04/22 03:18:10;;;;;;;15.57;4.60;;;;;;;;;;3587998;40;20073;-48
2021/04/22 03:20:36;;;;;;;13.55;4.43;;;;;;;;;;3587135;40;20046;-51
2021/04/22 03:23:02;;;;;;;9.43;3.67;;;;;;;;;;3587119;40;20424;-51
2021/04/22 03:25:28;;;;;;;7.72;3.35;;;;;;;;;;3586062;40;20096;-51
2021/04/22 03:27:54;;;;;;;9.32;3.67;;;;;;;;;;3585967;40;20072;-53
2021/04/22 03:30:24;;;;;;;10.55;3.47;;;;;;;;;;3586232;40;20036;-52
2021/04/22 03:32:50;;;;;;;12.38;3.50;;;;;;;;;;3586543;40;20036;-53
2021/04/22 03:35:16;;;;;;;12.77;3.92;;;;;;;;;;3587533;40;20356;-55
2021/04/22 03:37:42;;;;;;;7.00;3.35;;;;;;;;;;3585842;39;20386;-54
2021/04/22 03:40:09;;;;;;;12.25;3.75;;;;;;;;;;3588958;39;20032;-54
2021/04/22 03:42:35;;;;;;;8.43;2.90;;;;;;;;;;3585922;40;20434;-54
2021/04/22 03:45:01;;;;;;;15.35;3.13;;;;;;;;;;3587479;40;20044;-54
2021/04/22 03:47:27;;;;;;;12.25;3.53;;;;;;;;;;3588045;39;20060;-50
2021/04/22 03:49:52;;;;;;;17.80;3.10;;;;;;;;;;3587005;39;20055;-54
2021/04/22 03:52:19;;;;;;;9.98;2.85;;;;;;;;;;3586889;40;20383;-51
2021/04/22 03:54:45;;;;;;;9.05;2.88;;;;;;;;;;3588685;39;20443;-50
2021/04/22 03:57:10;;;;;;;9.93;2.70;;;;;;;;;;3586944;40;20047;-52
2021/04/22 03:59:35;;;;;;;9.65;2.83;;;;;;;;;;3588457;40;20044;-53
2021/04/22 04:02:01;;;;;;;10.02;3.30;;;;;;;;;;3586418;40;20372;-51
2021/04/22 04:04:26;;;;;;;7.60;2.63;;;;;;;;;;3588257;40;20041;-55
2021/04/22 04:06:53;;;;;;;9.82;3.28;;;;;;;;;;3586425;40;20497;-54
2021/04/22 04:09:18;;;;;;;12.10;3.05;;;;;;;;;;3586023;39;20171;-52
2021/04/22 04:11:43;;;;;;;9.73;3.22;;;;;;;;;;3586280;40;20070;-50
2021/04/22 04:14:09;;;;;;;13.38;3.28;;;;;;;;;;3585913;40;20354;-50
2021/04/22 04:16:34;;;;;;;12.15;2.83;;;;;;;;;;3586595;40;20048;-50
2021/04/22 04:19:00;;;;;;;13.20;3.58;;;;;;;;;;3585792;40;20059;-54
2021/04/22 04:21:25;;;;;;;9.45;3.28;;;;;;;;;;3584930;40;20052;-54
2021/04/22 04:23:51;;;;;;;10.15;3.10;;;;;;;;;;3585143;40;20060;-54
2021/04/22 04:26:17;;;;;;;15.55;3.25;;;;;;;;;;3586689;40;20029;-55
2021/04/22 04:28:43;;;;;;;10.02;2.80;;;;;;;;;;3586242;39;20052;-53
2021/04/22 04:31:08;;;;;;;16.42;3.60;;;;;;;;;;3587175;40;20029;-52
2021/04/22 04:33:34;;;;;;;10.98;3.53;;;;;;;;;;3585747;39;20043;-54
2021/04/22 04:35:59;;;;;;;12.23;2.85;;;;;;;;;;3585664;40;20044;-53
2021/04/22 04:38:25;;;;;;;13.75;3.78;;;;;;;;;;3585850;39;20371;-51
2021/04/22 04:40:50;;;;;;;10.07;3.97;;;;;;;;;;3585881;40;20045;-53
2021/04/22 04:43:15;;;;;;;11.32;3.90;;;;;;;;;;3586792;40;20032;-50
2021/04/22 04:45:41;;;;;;;10.93;3.33;;;;;;;;;;3585668;40;20068;-52
2021/04/22 04:48:07;;;;;;;10.48;3.33;;;;;;;;;;3585746;39;20103;-52
2021/04/22 04:50:32;;;;;;;9.57;2.50;;;;;;;;;;3589080;39;20044;-54
2021/04/22 04:52:58;;;;;;;14.40;3.45;;;;;;;;;;3585879;40;20302;-54
2021/04/22 04:55:23;;;;;;;13.68;3.00;;;;;;;;;;3586167;39;20102;-52
2021/04/22 04:57:49;;;;;;;11.90;2.95;;;;;;;;;;3586870;39;20133;-52
2021/04/22 05:00:17;;;;;;;11.50;3.65;;;;;;;;;;3585501;40;20115;-53
2021/04/22 05:02:42;;;;;;;13.00;3.67;;;;;;;;;;3585623;40;20118;-53
2021/04/22 05:05:09;;;;;;;10.20;3.30;;;;;;;;;;3585542;40;20068;-54
2021/04/22 05:07:35;;;;;;;14.75;3.35;;;;;;;;;;3586730;39;20040;-53
2021/04/22 05:10:00;;;;;;;11.35;3.40;;;;;;;;;;3585836;40;20464;-54
2021/04/22 05:12:26;;;;;;;14.40;3.78;;;;;;;;;;3585301;40;20040;-54
2021/04/22 05:14:51;;;;;;;16.08;4.40;;;;;;;;;;3585610;40;20056;-54
2021/04/22 05:17:17;;;;;;;19.15;3.30;;;;;;;;;;3587825;40;20043;-50
2021/04/22 05:19:44;;;;;;;21.20;3.95;;;;;;;;;;3584935;40;20040;-54
2021/04/22 05:22:10;;;;;;;18.45;3.42;;;;;;;;;;3585467;40;20033;-53
2021/04/22 05:24:35;;;;;;;8.45;2.67;;;;;;;;;;3585970;40;20040;-50
2021/04/22 05:27:01;;;;;;;18.00;4.20;;;;;;;;;;3584641;40;20699;-52
2021/04/22 05:29:26;;;;;;;20.05;4.43;;;;;;;;;;3585183;40;20039;-50
2021/04/22 05:31:52;;;;;;;16.58;4.47;;;;;;;;;;3585778;40;20036;-50
2021/04/22 05:34:18;;;;;;;12.93;3.55;;;;;;;;;;3586800;40;20048;-52
2021/04/22 05:36:43;;;;;;;15.55;4.00;;;;;;;;;;3586446;40;20040;-54
2021/04/22 05:39:09;;;;;;;9.40;2.97;;;;;;;;;;3588821;39;20044;-53
2021/04/22 05:41:34;;;;;;;23.42;5.05;;;;;;;;;;3586809;39;20036;-55
2021/04/22 05:44:00;;;;;;;13.20;3.22;;;;;;;;;;3585959;39;20044;-54
2021/04/22 05:46:26;;;;;;;14.40;3.55;;;;;;;;;;3584062;40;20368;-52
2021/04/22 05:48:52;;;;;;;12.00;4.10;;;;;;;;;;3587713;40;20068;-54
2021/04/22 05:51:17;;;;;;;18.38;4.53;;;;;;;;;;3587585;39;20039;-53
2021/04/22 05:53:43;;;;;;;17.23;3.83;;;;;;;;;;3587201;40;20060;-53
2021/04/22 05:56:09;;;;;;;16.08;4.07;;;;;;;;;;3586398;40;20333;-55
2021/04/22 05:58:35;;;;;;;13.05;4.43;;;;;;;;;;3586750;39;20052;-51
2021/04/22 06:01:00;;;;;;;21.00;4.55;;;;;;;;;;3588497;39;20045;-53
2021/04/22 06:03:26;;;;;;;26.55;4.85;;;;;;;;;;3588379;39;20044;-52
2021/04/22 06:05:51;;;;;;;13.90;3.75;;;;;;;;;;3587290;39;20141;-52
2021/04/22 06:08:17;;;;;;;18.23;4.22;;;;;;;;;;3588116;39;20124;-53
2021/04/22 06:10:42;;;;;;;18.70;4.85;;;;;;;;;;3587365;39;20047;-54
2021/04/22 06:13:08;;;;;;;16.85;4.25;;;;;;;;;;3588342;39;20454;-54
2021/04/22 06:15:35;;;;;;;13.18;3.88;;;;;;;;;;3587481;39;20039;-54
2021/04/22 06:18:00;;;;;;;14.60;4.95;;;;;;;;;;3587715;39;20105;-54
2021/04/22 06:20:27;;;;;;;16.42;4.18;;;;;;;;;;3586056;39;20029;-51
2021/04/22 06:22:53;;;;;;;17.00;5.65;;;;;;;;;;3586403;39;20060;-53
2021/04/22 06:25:20;;;;;;;19.48;5.18;;;;;;;;;;3588392;39;20389;-56
2021/04/22 06:27:46;;;;;;;18.75;4.57;;;;;;;;;;3587210;39;20032;-56
2021/04/22 06:30:13;;;;;;;15.40;4.18;;;;;;;;;;3590054;39;20083;-54
2021/04/22 06:32:38;;;;;;;23.63;5.28;;;;;;;;;;3586539;39;20032;-55
2021/04/22 06:35:05;;;;;;;22.17;5.00;;;;;;;;;;3587767;39;20084;-54
2021/04/22 06:37:31;;;;;;;18.15;4.95;;;;;;;;;;3588952;39;20033;-55
2021/04/22 06:39:56;;;;;;;15.93;3.92;;;;;;;;;;3589154;39;20033;-56
2021/04/22 06:42:22;;;;;;;19.10;5.30;;;;;;;;;;3588113;39;20036;-57
2021/04/22 06:44:47;;;;;;;11.88;4.18;;;;;;;;;;3589174;39;20025;-56
2021/04/22 06:47:13;;;;;;;12.95;4.93;;;;;;;;;;3588335;39;20065;-56
2021/04/22 06:49:40;;;;;;;15.95;4.85;;;;;;;;;;3587965;39;20040;-55
2021/04/22 06:52:06;;;;;;;15.65;5.47;;;;;;;;;;3587552;39;20040;-55
2021/04/22 06:54:31;;;;;;;16.08;4.60;;;;;;;;;;3588535;39;20033;-55
2021/04/22 06:56:57;;;;;;;15.82;5.07;;;;;;;;;;3590464;39;20144;-55
2021/04/22 06:59:23;;;;;;;13.98;4.68;;;;;;;;;;3589743;39;20080;-57
2021/04/22 07:01:48;;;;;;;14.10;5.75;;;;;;;;;;3588253;39;20048;-56
2021/04/22 07:04:14;;;;;;;18.92;5.05;;;;;;;;;;3589108;39;20361;-54
2021/04/22 07:06:39;;;;;;;19.08;5.00;;;;;;;;;;3591468;39;20021;-56
2021/04/22 07:09:05;;;;;;;21.00;5.22;;;;;;;;;;3590597;39;20310;-54
2021/04/22 07:11:30;;;;;;;15.25;5.15;;;;;;;;;;3591406;39;20087;-54
2021/04/22 07:13:56;;;;;;;17.85;4.82;;;;;;;;;;3588029;39;20037;-53
2021/04/22 07:16:21;;;;;;;12.00;4.80;;;;;;;;;;3589096;39;20315;-55
2021/04/22 07:18:47;;;;;;;25.33;5.55;;;;;;;;;;3589395;39;20048;-56
2021/04/22 07:21:12;;;;;;;16.80;4.80;;;;;;;;;;3589260;39;20041;-54
2021/04/22 07:23:38;;;;;;;12.65;4.45;;;;;;;;;;3589129;39;20036;-56
2021/04/22 07:26:03;;;;;;;15.55;4.45;;;;;;;;;;3588446;39;20040;-54
2021/04/22 07:28:29;;;;;;;17.50;4.93;;;;;;;;;;3589156;39;20044;-57
2021/04/22 07:30:54;;;;;;;13.60;4.95;;;;;;;;;;3589517;39;20368;-56
2021/04/22 07:33:20;;;;;;;11.25;4.18;;;;;;;;;;3590011;39;20117;-57
2021/04/22 07:35:46;;;;;;;27.77;5.18;;;;;;;;;;3587659;39;20037;-54
2021/04/22 07:38:14;;;;;;;15.25;4.18;;;;;;;;;;3588824;39;20037;-56
2021/04/22 07:40:41;;;;;;;12.93;4.22;;;;;;;;;;3590176;39;20044;-55
2021/04/22 07:43:07;;;;;;;12.30;4.75;;;;;;;;;;3588116;39;20036;-56
2021/04/22 07:45:35;;;;;;;13.57;4.53;;;;;;;;;;3588578;39;20143;-56
2021/04/22 07:48:02;;;;;;;14.60;4.10;;;;;;;;;;3590234;39;20102;-56
2021/04/22 07:50:28;;;;;;;14.13;4.32;;;;;;;;;;3592884;39;20515;-55
2021/04/22 07:52:54;;;;;;;15.63;4.45;;;;;;;;;;3593714;39;20046;-53
2021/04/22 07:55:28;;;;;;;12.20;4.28;;;;;;;;;;3590984;39;20064;-55
2021/04/22 07:57:54;;;;;;;9.63;3.45;;;;;;;;;;3592090;39;20162;-53
2021/04/22 08:00:22;;;;;;;10.45;3.38;;;;;;;;;;3589012;39;20063;-55
2021/04/22 08:02:48;;;;;;;10.45;3.85;;;;;;;;;;3587326;39;20045;-55
2021/04/22 08:05:15;;;;;;;13.98;4.25;;;;;;;;;;3589322;39;20036;-56
2021/04/22 08:07:41;;;;;;;14.52;4.13;;;;;;;;;;3587789;39;20071;-56
2021/04/22 08:10:11;;;;;;;18.25;4.55;;;;;;;;;;3587408;39;20439;-55
2021/04/22 08:12:37;;;;;;;14.68;4.53;;;;;;;;;;3588006;39;20032;-54
2021/04/22 08:15:05;;;;;;;13.30;4.07;;;;;;;;;;3587490;39;20074;-52
2021/04/22 08:17:32;;;;;;;10.52;4.00;;;;;;;;;;3587246;39;20025;-56
2021/04/22 08:19:59;;;;;;;11.88;3.63;;;;;;;;;;3586533;39;20141;-55
2021/04/22 08:22:25;;;;;;;10.30;3.53;;;;;;;;;;3586432;39;20037;-53
2021/04/22 08:24:50;;;;;;;17.48;4.07;;;;;;;;;;3590120;39;20083;-56
2021/04/22 08:27:16;;;;;;;12.60;3.58;;;;;;;;;;3588532;39;20033;-56
2021/04/22 08:29:41;;;;;;;14.10;3.92;;;;;;;;;;3586422;39;20036;-54
2021/04/22 08:32:07;;;;;;;13.77;3.50;;;;;;;;;;3587816;39;20707;-55
2021/04/22 08:34:32;;;;;;;11.57;3.75;;;;;;;;;;3588319;39;20066;-56
2021/04/22 08:36:58;;;;;;;17.45;4.15;;;;;;;;;;3588997;39;20043;-53
2021/04/22 08:39:23;;;;;;;17.52;3.88;;;;;;;;;;3589507;39;20044;-55
2021/04/22 08:41:49;;;;;;;14.15;3.63;;;;;;;;;;3591102;39;20068;-56
2021/04/22 08:44:15;;;;;;;17.40;4.13;;;;;;;;;;3587490;39;20020;-56
2021/04/22 08:46:42;;;;;;;17.30;4.07;;;;;;;;;;3587951;39;20466;-54
2021/04/22 08:49:08;;;;;;;12.27;4.53;;;;;;;;;;3586954;39;20133;-55
2021/04/22 08:51:33;;;;;;;12.20;4.32;;;;;;;;;;3587017;39;20040;-54
2021/04/22 08:54:00;;;;;;;14.10;4.03;;;;;;;;;;3593331;39;20057;-54
2021/04/22 08:56:26;;;;;;;9.55;4.28;;;;;;;;;;3595018;39;20048;-55
2021/04/22 08:58:51;;;;;;;12.57;3.65;;;;;;;;;;3589825;39;20133;-55
2021/04/22 09:01:19;;;;;;;12.38;4.22;;;;;;;;;;3592168;39;20032;-56
2021/04/22 09:03:46;;;;;;;10.70;3.05;;;;;;;;;;3593194;39;20928;-54
2021/04/22 09:06:13;;;;;;;10.23;3.63;;;;;;;;;;3590898;39;20117;-56
2021/04/22 09:08:45;;;;;;;10.88;3.92;;;;;;;;;;3586719;39;20056;-56
2021/04/22 09:11:13;;;;;;;14.68;3.88;;;;;;;;;;3589279;39;20044;-53
2021/04/22 09:13:39;;;;;;;13.07;4.32;;;;;;;;;;3588194;39;20072;-57
2021/04/22 09:16:10;;;;;;;14.77;4.35;;;;;;;;;;3591371;39;20040;-57
2021/04/22 09:18:56;;;;;;;14.00;4.47;;;;;;;;;;3590858;39;20036;-53
2021/04/22 09:21:29;;;;;;;11.98;3.90;;;;;;;;;;3588679;39;20048;-56
2021/04/22 09:23:57;;;;;;;18.17;4.03;;;;;;;;;;3592995;39;20367;-54
2021/04/22 09:26:40;;;;;;;11.93;3.90;;;;;;;;;;3589971;39;20148;-53
2021/04/22 09:29:07;;;;;;;23.20;4.28;;;;;;;;;;3592865;39;20137;-56
2021/04/22 09:31:33;;;;;;;11.70;3.08;;;;;;;;;;3590975;39;20122;-53
2021/04/22 09:34:18;;;;;;;10.98;4.05;;;;;;;;;;3591570;39;20101;-56
2021/04/22 09:36:50;;;;;;;10.68;3.30;;;;;;;;;;3589793;39;20044;-56
2021/04/22 09:39:20;;;;;;;9.73;3.38;;;;;;;;;;3591163;39;20056;-56
2021/04/22 09:41:47;;;;;;;10.57;3.50;;;;;;;;;;3592275;39;20455;-56
2021/04/22 09:44:15;;;;;;;9.23;3.38;;;;;;;;;;3591578;39;20043;-56
2021/04/22 09:46:43;;;;;;;13.00;4.35;;;;;;;;;;3591166;39;20514;-55
2021/04/22 09:49:15;;;;;;;11.98;3.70;;;;;;;;;;3589449;39;20031;-57
2021/04/22 09:51:40;;;;;;;14.10;4.13;;;;;;;;;;3589288;39;20100;-56
2021/04/22 09:54:18;;;;;;;12.55;3.67;;;;;;;;;;3589286;39;20048;-56
2021/04/22 09:56:45;;;;;;;25.20;4.15;;;;;;;;;;3588925;39;20048;-55
2021/04/22 09:59:16;;;;;;;13.48;4.00;;;;;;;;;;3591397;39;20144;-56
2021/04/22 10:01:42;;;;;;;12.65;3.63;;;;;;;;;;3590191;39;20110;-54
2021/04/22 10:04:07;;;;;;;16.88;4.28;;;;;;;;;;3592558;39;20422;-56
2021/04/22 10:06:43;;;;;;;14.93;5.25;;;;;;;;;;3588958;39;20052;-52
2021/04/22 10:09:09;;;;;;;12.82;4.45;;;;;;;;;;3586911;40;20118;-54
2021/04/22 10:11:46;;;;;;;17.58;3.95;;;;;;;;;;3588760;39;20354;-56
2021/04/22 10:14:11;;;;;;;14.00;4.53;;;;;;;;;;3589655;40;20044;-57
2021/04/22 10:16:37;;;;;;;15.60;4.35;;;;;;;;;;3590121;40;20324;-55
2021/04/22 10:19:13;;;;;;;14.02;4.45;;;;;;;;;;3588279;39;20043;-57
2021/04/22 10:21:43;;;;;;;12.73;3.90;;;;;;;;;;3589271;40;20048;-56
2021/04/22 10:24:12;;;;;;;7.53;3.13;;;;;;;;;;3588954;40;20044;-56
2021/04/22 10:26:37;;;;;;;11.07;4.00;;;;;;;;;;3589640;39;20301;-53
2021/04/22 10:29:03;;;;;;;12.73;3.67;;;;;;;;;;3590320;40;20048;-54
2021/04/22 10:31:28;;;;;;;11.57;4.60;;;;;;;;;;3591122;39;20043;-55
2021/04/22 10:33:54;;;;;;;20.23;5.47;;;;;;;;;;3590669;39;20630;-57
2021/04/22 10:36:21;;;;;;;11.82;4.82;;;;;;;;;;3590485;39;20068;-56
2021/04/22 10:38:51;;;;;;;15.00;4.32;;;;;;;;;;3590166;39;20380;-56
2021/04/22 10:41:18;;;;;;;20.37;4.50;;;;;;;;;;3591434;39;20453;-55
2021/04/22 10:43:46;;;;;;;12.23;4.38;;;;;;;;;;3590344;39;20048;-54
2021/04/22 10:46:11;;;;;;;10.45;4.15;;;;;;;;;;3591987;39;20016;-56
2021/04/22 10:48:38;;;;;;;8.80;3.47;;;;;;;;;;3591980;39;20072;-53
2021/04/22 10:51:05;;;;;;;9.85;3.28;;;;;;;;;;3591314;39;20029;-56
2021/04/22 10:53:30;;;;;;;12.20;4.57;;;;;;;;;;3591292;39;20040;-55
2021/04/22 10:55:57;;;;;;;12.95;4.22;;;;;;;;;;3592399;39;20052;-55
2021/04/22 10:58:28;;;;;;;14.55;4.60;;;;;;;;;;3593702;39;20168;-53
2021/04/22 11:01:07;;;;;;;10.70;4.15;;;;;;;;;;3593087;39;21621;-53
2021/04/22 11:03:38;;;;;;;8.02;3.90;;;;;;;;;;3590939;39;20048;-56
2021/04/22 11:06:08;;;;;;;9.80;3.83;;;;;;;;;;3594150;39;20060;-56
2021/04/22 11:08:46;;;;;;;14.13;3.58;;;;;;;;;;3591758;39;20036;-57
2021/04/22 11:11:25;;;;;;;11.07;3.85;;;;;;;;;;3591244;39;20040;-53
2021/04/22 11:14:05;;;;;;;11.13;4.22;;;;;;;;;;3591227;39;20036;-51
2021/04/22 11:16:38;;;;;;;8.27;3.85;;;;;;;;;;3590655;39;20036;-55
2021/04/22 11:19:15;;;;;;;12.95;4.50;;;;;;;;;;3594532;40;20087;-54
2021/04/22 11:21:56;;;;;;;17.42;4.80;;;;;;;;;;3590353;40;20113;-54
2021/04/22 11:24:28;;;;;;;;;;;;;;;;;;3592662;40;20024;-56
2021/04/22 11:26:59;;;;;;;11.48;4.03;;;;;;;;;;3592201;40;19955;-56
2021/04/22 11:29:25;;;;;;;12.80;5.20;;;;;;;;;;3589890;39;20032;-56
2021/04/22 11:31:55;;;;;;;11.60;3.35;;;;;;;;;;3590347;40;20032;-55
2021/04/22 11:34:32;;;;;;;14.85;4.22;;;;;;;;;;3592116;40;20040;-56
2021/04/22 11:36:58;;;;;;;12.65;4.00;;;;;;;;;;3590880;39;20405;-55
2021/04/22 11:39:31;;;;;;;11.10;3.65;;;;;;;;;;3592095;39;20095;-55
2021/04/22 11:42:01;;;;;;;19.23;4.10;;;;;;;;;;3591135;39;20024;-55
2021/04/22 11:44:36;;;;;;;13.38;4.60;;;;;;;;;;3589724;39;20035;-57
2021/04/22 11:47:31;;;;;;;18.02;4.22;;;;;;;;;;3590953;40;20126;-57
2021/04/22 11:50:17;;;;;;;10.95;4.28;;;;;;;;;;3591128;40;20074;-55
2021/04/22 11:52:55;;;;;;;18.25;5.07;;;;;;;;;;3591074;39;20032;-54
2021/04/22 11:55:25;;;;;;;21.10;4.72;;;;;;;;;;3592365;39;20044;-54
2021/04/22 11:58:06;;;;;;;7.80;3.80;;;;;;;;;;3592069;40;20060;-57
2021/04/22 12:00:36;;;;;;;12.23;3.85;;;;;;;;;;3591835;39;20295;-55
2021/04/22 12:03:01;;;;;;;15.30;3.50;;;;;;;;;;3591157;40;20093;-57
2021/04/22 12:05:27;;;;;;;10.77;4.10;;;;;;;;;;3589588;39;20029;-57
2021/04/22 12:08:04;;;;;;;9.32;4.10;;;;;;;;;;3590684;40;20028;-56
2021/04/22 12:10:32;;;;;;;17.42;4.35;;;;;;;;;;3592801;39;20036;-57
2021/04/22 12:13:15;;;;;;;15.07;4.05;;;;;;;;;;3592704;40;20281;-57
2021/04/22 12:15:44;;;;;;;13.13;3.97;;;;;;;;;;3590317;39;20367;-56
2021/04/22 12:18:22;;;;;;;15.82;4.55;;;;;;;;;;3591022;40;20228;-55
2021/04/22 12:20:48;;;;;;;13.40;4.05;;;;;;;;;;3592919;39;20129;-57
2021/04/22 12:23:14;;;;;;;11.70;3.63;;;;;;;;;;3594054;40;20264;-55
2021/04/22 12:25:39;;;;;;;10.80;4.65;;;;;;;;;;3592639;39;20036;-55
2021/04/22 12:28:07;;;;;;;10.00;3.97;;;;;;;;;;3591890;39;20036;-56
2021/04/22 12:30:34;;;;;;;13.43;3.72;;;;;;;;;;3591470;40;20043;-56
2021/04/22 12:33:21;;;;;;;11.13;4.30;;;;;;;;;;3592937;40;20113;-56
2021/04/22 12:35:53;;;;;;;8.68;3.55;;;;;;;;;;3591653;39;20361;-56
2021/04/22 12:38:31;;;;;;;14.75;3.97;;;;;;;;;;3592117;39;20100;-56
2021/04/22 12:41:01;;;;;;;11.93;3.65;;;;;;;;;;3592757;40;20449;-56
2021/04/22 12:43:32;;;;;;;9.10;3.87;;;;;;;;;;3591072;39;20033;-53
2021/04/22 12:46:15;;;;;;;11.00;3.40;;;;;;;;;;3595141;39;20141;-56
2021/04/22 12:48:56;;;;;;;10.68;3.83;;;;;;;;;;3590398;40;20108;-55
2021/04/22 12:51:33;;;;;;;18.65;5.25;;;;;;;;;;3592066;39;20045;-57
2021/04/22 12:54:00;;;;;;;9.93;3.13;;;;;;;;;;3596366;40;20253;-56
2021/04/22 12:56:39;;;;;;;8.05;3.38;;;;;;;;;;3598245;40;20071;-54
2021/04/22 12:59:07;;;;;;;15.05;3.72;;;;;;;;;;3589369;39;20248;-55
2021/04/22 13:01:35;;;;;;;11.15;3.85;;;;;;;;;;3592186;39;20024;-56
2021/04/22 13:04:02;;;;;;;11.98;3.45;;;;;;;;;;3592906;40;20145;-56
2021/04/22 13:06:29;;;;;;;12.88;4.10;;;;;;;;;;3592838;40;20043;-56
2021/04/22 13:09:00;;;;;;;14.25;4.00;;;;;;;;;;3593324;39;20039;-55
2021/04/22 13:11:29;;;;;;;12.30;3.42;;;;;;;;;;3594279;39;20125;-56
2021/04/22 13:13:57;;;;;;;11.20;3.15;;;;;;;;;;3593046;40;20024;-56
2021/04/22 13:16:29;;;;;;;12.05;3.75;;;;;;;;;;3593620;39;20097;-56
2021/04/22 13:19:00;;;;;;;16.95;4.47;;;;;;;;;;3591210;40;20040;-56
2021/04/22 13:21:37;;;;;;;11.90;4.40;;;;;;;;;;3591135;39;20047;-52
2021/04/22 13:24:15;;;;;;;11.95;3.92;;;;;;;;;;3590122;39;20051;-56
2021/04/22 13:26:56;;;;;;;8.13;3.08;;;;;;;;;;3589015;39;20029;-57
2021/04/22 13:29:24;;;;;;;8.27;3.58;;;;;;;;;;3588672;40;20033;-57
2021/04/22 13:32:07;;;;;;;10.57;3.70;;;;;;;;;;3591522;40;20041;-53
2021/04/22 13:34:40;;;;;;;11.52;3.92;;;;;;;;;;3592199;39;20028;-56
2021/04/22 13:37:06;;;;;;;9.43;3.45;;;;;;;;;;3590421;40;20033;-57
2021/04/22 13:39:34;;;;;;;9.23;3.28;;;;;;;;;;3589141;39;20040;-54
2021/04/22 13:42:00;;;;;;;6.80;3.03;;;;;;;;;;3589371;39;20033;-55
2021/04/22 13:44:28;;;;;;;10.18;3.28;;;;;;;;;;3588354;40;20037;-55
2021/04/22 13:47:02;;;;;;;8.05;3.00;;;;;;;;;;3590796;39;20350;-55
2021/04/22 13:49:31;;;;;;;7.57;3.17;;;;;;;;;;3591560;40;20044;-52
2021/04/22 13:52:08;;;;;;;11.23;3.45;;;;;;;;;;3589101;39;20125;-53
2021/04/22 13:54:36;;;;;;;14.68;3.75;;;;;;;;;;3591454;40;20127;-54
2021/04/22 13:57:08;;;;;;;13.10;4.05;;;;;;;;;;3587961;39;20055;-55
2021/04/22 13:59:34;;;;;;;12.00;3.45;;;;;;;;;;3592280;39;20300;-53
2021/04/22 14:02:01;;;;;;;16.05;4.03;;;;;;;;;;3592392;39;20039;-56
2021/04/22 14:04:27;;;;;;;15.02;3.72;;;;;;;;;;3590103;39;20202;-54
2021/04/22 14:06:53;;;;;;;5.88;2.78;;;;;;;;;;3588099;40;20048;-54
2021/04/22 14:09:24;;;;;;;10.35;4.03;;;;;;;;;;3589494;39;20031;-56
2021/04/22 14:11:50;;;;;;;9.90;3.22;;;;;;;;;;3590474;40;20024;-56
2021/04/22 14:14:20;;;;;;;8.45;3.65;;;;;;;;;;3589245;40;20029;-56
2021/04/22 14:16:46;;;;;;;6.32;3.10;;;;;;;;;;3590268;40;20041;-55
2021/04/22 14:19:18;;;;;;;10.20;3.80;;;;;;;;;;3590673;39;20082;-53
2021/04/22 14:21:45;;;;;;;10.73;3.60;;;;;;;;;;3588514;40;20631;-55
2021/04/22 14:24:12;;;;;;;8.27;3.33;;;;;;;;;;3589725;40;20032;-55
2021/04/22 14:26:39;;;;;;;8.43;3.60;;;;;;;;;;3590355;40;20290;-54
2021/04/22 14:29:11;;;;;;;13.98;3.78;;;;;;;;;;3592891;40;20040;-54
2021/04/22 14:31:37;;;;;;;9.02;3.00;;;;;;;;;;3591773;39;20131;-55
2021/04/22 14:34:03;;;;;;;11.10;3.75;;;;;;;;;;3590924;39;20417;-54